Loncopue, Argentina
Current Conditions -  °F | °C
As of 2:00 AM on Saturday 25 Oct 2014 (Local Time) from SCQP Reporting Station
Broken Clouds Broken Clouds  
Wind Chill: 48°   Ceiling: 400
Heat Index: 48°   Visibility: 6mi
Dew Point: 48°   Wind: 2mph
Humidity: 100%   Direction: NA
Pressure: 30.03"   Gusts: NA
Location:  38.07°S, 70.62°W
Report Text: SCQP 250500Z VRB02KT 9999 BKN004 09/09 Q1017
Loading
Personal Weather Stations






























Interactive Weather Map New forecast layout! Learn more

10-Day Weather Forecast

Advertisements
Track Severe Weather on mobile